Time;durP1;ratioP1;P1;durP2;ratioP2;P2;SDS_P1;SDS_P2;PMS_P1;PMS_P2;Temp;Humidity;BMP_temperature;BMP_pressure;BME280_temperature;BME280_humidity;BME280_pressure;Samples;Min_cycle;Max_cycle;Signal;HPM_P1;HPM_P2
2021/04/29 00:00:25;;;;;;;0.50;0.50;;;;;;;10.24;81.40;95492.12;29394;236;64013;-63
2021/04/29 00:00:57;;;;;;;0.50;0.50;;;;;;;10.25;81.61;95490.22;29395;216;63005;-63
2021/04/29 00:01:28;;;;;;;0.50;0.50;;;;;;;10.26;81.73;95491.81;29395;238;63009;-64
2021/04/29 00:01:59;;;;;;;0.50;0.50;;;;;;;10.30;81.94;95492.75;29395;238;63005;-59
2021/04/29 00:02:30;;;;;;;0.50;0.50;;;;;;;10.31;81.83;95491.66;29394;206;64013;-62
2021/04/29 00:03:01;;;;;;;0.50;0.50;;;;;;;10.30;81.57;95498.19;29394;233;64009;-62
2021/04/29 00:03:34;;;;;;;0.50;0.50;;;;;;;10.31;81.70;95494.34;29395;244;63009;-62
2021/04/29 00:04:06;;;;;;;0.50;0.50;;;;;;;10.32;82.08;95498.66;29394;299;64009;-63
2021/04/29 00:04:38;;;;;;;0.85;0.85;;;;;;;10.36;82.35;95486.84;29395;212;63008;-64
2021/04/29 00:05:14;;;;;;;0.50;0.50;;;;;;;10.35;81.99;95489.87;29395;212;63004;-62
2021/04/29 00:05:45;;;;;;;0.50;0.50;;;;;;;10.34;81.67;95488.28;29395;204;63009;-62
2021/04/29 00:06:16;;;;;;;0.50;0.50;;;;;;;10.36;81.84;95486.03;29395;243;63005;-62
2021/04/29 00:06:48;;;;;;;0.50;0.50;;;;;;;10.36;81.72;95491.47;29395;254;63009;-63
2021/04/29 00:07:19;;;;;;;0.50;0.50;;;;;;;10.34;81.55;95489.09;29395;244;63005;-63
2021/04/29 00:07:50;;;;;;;0.50;0.50;;;;;;;10.37;81.70;95487.63;29395;219;63022;-62
2021/04/29 00:08:21;;;;;;;0.50;0.50;;;;;;;10.41;82.03;95488.56;29395;216;63005;-63
2021/04/29 00:08:52;;;;;;;0.50;0.50;;;;;;;10.40;82.12;95487.75;29395;292;63009;-61
2021/04/29 00:09:23;;;;;;;0.50;0.50;;;;;;;10.39;81.98;95485.41;29394;229;64009;-62
2021/04/29 00:09:54;;;;;;;0.50;0.50;;;;;;;10.38;81.43;95486.53;29395;245;63009;-63
2021/04/29 00:10:30;;;;;;;0.50;0.50;;;;;;;10.35;81.48;95489.87;29395;237;63004;-61
2021/04/29 00:11:02;;;;;;;0.50;0.50;;;;;;;10.38;81.41;95481.09;29395;197;63009;-63
2021/04/29 00:11:35;;;;;;;0.50;0.50;;;;;;;10.36;81.67;95483.34;29395;374;63004;-62
2021/04/29 00:12:07;;;;;;;0.50;0.50;;;;;;;10.39;81.85;95488.09;29395;257;63008;-61
2021/04/29 00:12:39;;;;;;;0.50;0.50;;;;;;;10.39;81.82;95485.41;29395;196;63004;-59
2021/04/29 00:13:10;;;;;;;0.50;0.50;;;;;;;10.37;81.56;95488.44;29395;209;63009;-57
2021/04/29 00:13:41;;;;;;;0.50;0.50;;;;;;;10.36;81.59;95486.03;29394;211;64009;-62
2021/04/29 00:14:12;;;;;;;0.50;0.50;;;;;;;10.36;81.71;95486.03;29395;248;63009;-62
2021/04/29 00:14:44;;;;;;;0.50;0.50;;;;;;;10.35;82.05;95479.03;29395;199;63005;-62
2021/04/29 00:15:16;;;;;;;0.50;0.50;;;;;;;10.35;82.21;95484.44;29395;218;63009;-62
2021/04/29 00:15:48;;;;;;;0.50;0.50;;;;;;;10.34;81.84;95483.66;29395;208;63005;-62
2021/04/29 00:16:19;;;;;;;0.50;0.50;;;;;;;10.37;82.42;95482.22;29395;202;63009;-63
2021/04/29 00:16:52;;;;;;;0.50;0.50;;;;;;;10.34;82.50;95488.28;29394;232;64009;-62
2021/04/29 00:17:24;;;;;;;0.50;0.50;;;;;;;10.30;82.11;95485.44;29395;278;63009;-61
2021/04/29 00:17:55;;;;;;;0.50;0.50;;;;;;;10.29;82.36;95486.53;29395;250;63004;-62
2021/04/29 00:18:27;;;;;;;0.50;0.50;;;;;;;10.26;82.80;95495.31;29395;226;63009;-63
2021/04/29 00:18:59;;;;;;;0.50;0.50;;;;;;;10.26;83.14;95486.41;29395;213;63004;-61
2021/04/29 00:19:31;;;;;;;0.50;0.50;;;;;;;10.26;82.89;95486.41;29395;197;63008;-62
2021/04/29 00:20:08;;;;;;;0.50;0.50;;;;;;;10.23;82.94;95487.84;29396;253;63007;-63
2021/04/29 00:20:40;;;;;;;0.50;0.50;;;;;;;10.29;82.92;95485.75;29396;206;63009;-63
2021/04/29 00:21:11;;;;;;;0.50;0.50;;;;;;;10.29;82.88;95485.75;29395;208;64009;-62
2021/04/29 00:21:42;;;;;;;0.50;0.50;;;;;;;10.27;82.34;95479.84;29396;217;63009;-56
2021/04/29 00:22:13;;;;;;;0.50;0.50;;;;;;;10.32;82.78;95490.53;29395;214;64008;-63
2021/04/29 00:22:45;;;;;;;0.60;0.60;;;;;;;10.33;82.59;95484.78;29396;219;63009;-61
2021/04/29 00:23:16;;;;;;;0.50;0.50;;;;;;;10.35;82.74;95484.44;29395;245;63005;-62
2021/04/29 00:23:47;;;;;;;0.50;0.50;;;;;;;10.33;82.41;95486.69;29396;199;63009;-62
2021/04/29 00:24:19;;;;;;;0.50;0.50;;;;;;;10.32;82.67;95493.22;29396;279;63004;-62
2021/04/29 00:24:50;;;;;;;0.50;0.50;;;;;;;10.27;82.87;95488.00;29396;198;63009;-63
2021/04/29 00:25:21;;;;;;;0.50;0.50;;;;;;;10.24;83.01;95488.63;29396;272;63004;-63
2021/04/29 00:25:56;;;;;;;0.50;0.50;;;;;;;10.21;83.00;95490.06;29396;211;63009;-62
2021/04/29 00:26:27;;;;;;;0.50;0.50;;;;;;;10.20;82.94;95490.41;29396;218;63004;-61
2021/04/29 00:26:58;;;;;;;0.50;0.50;;;;;;;10.25;83.04;95484.81;29396;411;63008;-58
2021/04/29 00:27:29;;;;;;;0.57;0.57;;;;;;;10.25;83.03;95490.22;29395;295;64009;-63
2021/04/29 00:28:00;;;;;;;0.50;0.50;;;;;;;10.25;82.97;95488.31;29396;232;63009;-63
2021/04/29 00:28:31;;;;;;;0.50;0.50;;;;;;;10.23;83.25;95495.19;29395;202;64009;-63
2021/04/29 00:29:03;;;;;;;0.50;0.50;;;;;;;10.22;83.13;95493.59;29396;202;63013;-63
2021/04/29 00:29:34;;;;;;;0.93;0.93;;;;;;;10.19;83.16;95494.19;29396;214;63005;-58
2021/04/29 00:30:08;;;;;;;0.50;0.50;;;;;;;10.18;82.56;95489.91;29396;229;63009;-62
2021/04/29 00:30:39;;;;;;;0.57;0.57;;;;;;;10.19;83.09;95502.31;29396;269;63005;-63
2021/04/29 00:31:10;;;;;;;0.50;0.50;;;;;;;10.18;83.67;95495.31;29396;221;63009;-63
2021/04/29 00:31:41;;;;;;;0.50;0.50;;;;;;;10.16;83.99;95494.84;29396;199;63004;-63
2021/04/29 00:32:12;;;;;;;0.52;0.52;;;;;;;10.18;83.77;95495.31;29396;205;63009;-63
2021/04/29 00:32:43;;;;;;;0.60;0.60;;;;;;;10.17;83.82;95493.72;29396;257;63004;-62
2021/04/29 00:33:15;;;;;;;0.50;0.50;;;;;;;10.17;83.49;95493.72;29396;259;63009;-63
2021/04/29 00:33:46;;;;;;;0.50;0.50;;;;;;;10.15;83.04;95496.75;29395;360;64009;-63
2021/04/29 00:34:18;;;;;;;0.50;0.50;;;;;;;10.16;83.02;95501.06;29396;196;63008;-62
2021/04/29 00:34:49;;;;;;;0.50;0.50;;;;;;;10.16;84.20;95497.56;29396;198;63005;-63
2021/04/29 00:35:20;;;;;;;0.50;0.50;;;;;;;10.14;84.76;95505.22;29396;202;63005;-63
2021/04/29 00:35:51;;;;;;;0.50;0.50;;;;;;;10.14;84.37;95506.00;29396;206;63005;-62
2021/04/29 00:36:28;;;;;;;0.50;0.50;;;;;;;10.15;84.93;95506.81;29395;220;64014;-56
2021/04/29 00:36:59;;;;;;;0.50;0.50;;;;;;;10.14;84.59;95505.22;29396;327;63005;-63
2021/04/29 00:37:30;;;;;;;0.50;0.50;;;;;;;10.16;84.53;95503.78;29396;214;63009;-63
2021/04/29 00:38:04;;;;;;;0.50;0.50;;;;;;;10.15;84.63;95512.22;29396;238;63005;-63
2021/04/29 00:38:35;;;;;;;0.50;0.50;;;;;;;10.14;84.55;95502.50;29396;199;63009;-63
2021/04/29 00:39:07;;;;;;;0.60;0.60;;;;;;;10.10;85.57;95510.47;29395;236;64009;-62
2021/04/29 00:39:42;;;;;;;0.50;0.50;;;;;;;10.08;85.96;95501.88;29396;237;63009;-62
2021/04/29 00:40:17;;;;;;;0.60;0.60;;;;;;;10.07;85.45;95506.50;29395;220;64009;-61
2021/04/29 00:40:49;;;;;;;0.50;0.50;;;;;;;10.07;85.54;95506.50;29395;204;64013;-63
2021/04/29 00:41:21;;;;;;;0.50;0.50;;;;;;;10.08;85.34;95510.78;29396;314;63004;-62
2021/04/29 00:41:53;;;;;;;0.50;0.50;;;;;;;10.11;84.86;95508.56;29396;224;63008;-63
2021/04/29 00:42:24;;;;;;;0.60;0.60;;;;;;;10.14;84.93;95505.22;29396;236;63005;-64
2021/04/29 00:42:55;;;;;;;0.50;0.50;;;;;;;10.16;84.82;95508.41;29396;210;63009;-61
2021/04/29 00:43:26;;;;;;;0.50;0.50;;;;;;;10.24;85.05;95497.56;29396;197;63005;-62
2021/04/29 00:43:58;;;;;;;0.50;0.50;;;;;;;10.28;84.89;95503.94;29396;238;63009;-61
2021/04/29 00:44:29;;;;;;;0.50;0.50;;;;;;;10.30;84.79;95509.81;29396;253;63005;-62
2021/04/29 00:45:01;;;;;;;0.50;0.50;;;;;;;10.30;84.38;95506.31;29396;214;63009;-61
2021/04/29 00:45:34;;;;;;;0.50;0.50;;;;;;;10.30;84.41;95509.03;29396;223;63005;-62
2021/04/29 00:46:13;;;;;;;0.50;0.50;;;;;;;10.28;84.31;95505.84;29417;221;64013;-63
2021/04/29 00:46:44;;;;;;;0.50;0.50;;;;;;;10.29;84.25;95507.44;29374;209;63004;-61
2021/04/29 00:47:17;;;;;;;0.50;0.50;;;;;;;10.33;84.08;95502.97;29396;316;63009;-63
2021/04/29 00:47:50;;;;;;;0.50;0.50;;;;;;;10.33;84.48;95505.66;29396;317;63004;-63
2021/04/29 00:48:21;;;;;;;0.50;0.50;;;;;;;10.30;84.14;95509.81;29396;210;63009;-62
2021/04/29 00:48:52;;;;;;;0.50;0.50;;;;;;;10.31;84.21;95510.63;29396;209;63004;-62
2021/04/29 00:49:23;;;;;;;0.50;0.50;;;;;;;10.28;84.51;95509.34;29396;263;63008;-63
2021/04/29 00:49:56;;;;;;;0.50;0.50;;;;;;;10.28;84.46;95509.34;29396;228;63005;-62
2021/04/29 00:50:27;;;;;;;0.50;0.50;;;;;;;10.27;84.28;95509.69;29396;231;63009;-62
2021/04/29 00:50:58;;;;;;;0.50;0.50;;;;;;;10.30;84.38;95503.59;29396;204;63005;-62
2021/04/29 00:51:33;;;;;;;0.50;0.50;;;;;;;10.31;84.19;95505.19;29395;214;64014;-62
2021/04/29 00:52:07;;;;;;;0.50;0.50;;;;;;;10.35;84.29;95506.16;29396;280;63005;-62
2021/04/29 00:52:39;;;;;;;0.50;0.50;;;;;;;10.36;84.30;95507.75;29396;202;63009;-64
2021/04/29 00:53:10;;;;;;;0.50;0.50;;;;;;;10.37;84.19;95503.91;29396;220;63005;-63
2021/04/29 00:53:43;;;;;;;0.50;0.50;;;;;;;10.38;84.01;95505.50;29396;224;63009;-63
2021/04/29 00:54:14;;;;;;;0.50;0.50;;;;;;;10.36;84.93;95505.03;29396;249;63004;-63
2021/04/29 00:54:45;;;;;;;0.50;0.50;;;;;;;10.38;84.50;95505.50;29396;251;63009;-61
2021/04/29 00:55:17;;;;;;;0.50;0.50;;;;;;;10.37;84.42;95509.31;29396;196;63004;-62
2021/04/29 00:55:48;;;;;;;0.50;0.50;;;;;;;10.36;84.23;95507.75;29395;215;64013;-63
2021/04/29 00:56:20;;;;;;;0.52;0.52;;;;;;;10.35;83.96;95506.16;29396;208;63004;-63
2021/04/29 00:56:52;;;;;;;0.50;0.50;;;;;;;10.34;84.38;95507.25;29396;222;63008;-62
2021/04/29 00:57:25;;;;;;;0.50;0.50;;;;;;;10.33;84.38;95513.81;29396;239;63004;-57
2021/04/29 00:57:56;;;;;;;0.50;0.50;;;;;;;10.31;84.73;95516.03;29396;199;63009;-62
2021/04/29 00:58:27;;;;;;;0.50;0.50;;;;;;;10.32;84.32;95507.59;29396;302;63005;-62
2021/04/29 00:58:58;;;;;;;0.50;0.50;;;;;;;10.30;84.76;95509.81;29396;225;63009;-62
2021/04/29 00:59:30;;;;;;;0.50;0.50;;;;;;;10.30;84.52;95509.03;29396;257;63011;-63
2021/04/29 01:00:03;;;;;;;0.52;0.52;;;;;;;10.33;84.67;95502.97;29396;202;63009;-63
2021/04/29 01:00:37;;;;;;;0.50;0.50;;;;;;;10.34;84.69;95509.97;29396;218;63005;-63
2021/04/29 01:01:10;;;;;;;0.50;0.50;;;;;;;10.32;84.75;95512.22;29395;238;64013;-63
2021/04/29 01:01:42;;;;;;;0.50;0.50;;;;;;;10.30;85.07;95514.44;29396;316;63004;-63
2021/04/29 01:02:15;;;;;;;0.57;0.57;;;;;;;10.30;84.78;95506.31;29396;210;63009;-62
2021/04/29 01:02:52;;;;;;;0.50;0.50;;;;;;;10.30;84.98;95519.87;29396;198;63004;-57
2021/04/29 01:04:00;;;;;;;0.50;0.50;;;;;;;10.27;84.59;95512.37;29396;197;63009;-63
2021/04/29 01:04:41;;;;;;;0.50;0.50;;;;;;;10.27;84.81;95509.69;29397;292;63004;-63
2021/04/29 01:05:21;;;;;;;0.50;0.50;;;;;;;10.26;85.12;95518.94;29419;248;63009;-63
2021/04/29 01:06:02;;;;;;;0.50;0.50;;;;;;;10.24;85.14;95521.97;29396;212;64009;-62
2021/04/29 01:06:42;;;;;;;0.50;0.50;;;;;;;10.23;85.39;95514.16;29418;214;64014;-63
2021/04/29 01:07:15;;;;;;;0.50;0.50;;;;;;;10.25;85.60;95514.63;29397;210;63005;-63
2021/04/29 01:07:59;;;;;;;0.50;0.50;;;;;;;10.25;85.51;95522.75;29397;286;63009;-64
2021/04/29 01:08:39;;;;;;;0.50;0.50;;;;;;;10.23;85.54;95525.78;29397;227;63005;-56
2021/04/29 01:09:23;;;;;;;0.60;0.60;;;;;;;10.25;85.06;95522.75;29441;210;63009;-63
2021/04/29 01:10:08;;;;;;;0.50;0.50;;;;;;;10.25;85.51;95520.03;29397;230;63004;-63
2021/04/29 01:10:53;;;;;;;0.50;0.50;;;;;;;10.24;85.58;95523.88;29397;210;63009;-62
2021/04/29 01:11:29;;;;;;;0.50;0.50;;;;;;;10.24;85.13;95532.81;29396;204;64023;-62
2021/04/29 01:12:07;;;;;;;0.50;0.50;;;;;;;10.23;85.42;95530.41;29397;282;63008;-58
2021/04/29 01:12:51;;;;;;;0.50;0.50;;;;;;;10.23;85.92;95527.69;29397;201;63005;-62
2021/04/29 01:13:26;;;;;;;0.60;0.60;;;;;;;10.23;85.33;95527.69;29397;248;63009;-62
2021/04/29 01:14:02;;;;;;;0.50;0.50;;;;;;;10.24;85.26;95526.59;29396;225;64009;-57
2021/04/29 01:14:34;;;;;;;0.50;0.50;;;;;;;10.25;85.21;95522.75;29397;212;63009;-62
2021/04/29 01:15:07;;;;;;;0.50;0.50;;;;;;;10.25;86.12;95528.19;29397;261;63005;-63
2021/04/29 01:15:42;;;;;;;0.52;0.52;;;;;;;10.25;86.09;95533.59;29397;202;63009;-63
2021/04/29 01:16:20;;;;;;;0.60;0.60;;;;;;;10.24;85.96;95521.16;29396;221;64009;-63
2021/04/29 01:16:51;;;;;;;0.50;0.50;;;;;;;10.26;85.81;95525.16;29397;239;63009;-64
2021/04/29 01:17:23;;;;;;;0.50;0.50;;;;;;;10.28;85.81;95528.34;29396;232;63004;-57
2021/04/29 01:17:57;;;;;;;0.50;0.50;;;;;;;10.29;85.24;95526.41;29396;216;63009;-62
2021/04/29 01:18:29;;;;;;;0.50;0.50;;;;;;;10.31;85.21;95526.87;29396;207;63004;-62
2021/04/29 01:19:01;;;;;;;0.50;0.50;;;;;;;10.33;85.67;95530.06;29396;215;63008;-63
2021/04/29 01:20:05;;;;;;;0.50;0.50;;;;;;;10.35;85.08;95533.25;29396;215;63004;-64
2021/04/29 01:20:58;;;;;;;0.60;0.60;;;;;;;10.39;85.26;95520.66;29396;211;63009;-63
2021/04/29 01:21:30;;;;;;;0.50;0.50;;;;;;;10.44;85.12;95531.28;29395;204;64009;-63
2021/04/29 01:22:02;;;;;;;0.50;0.50;;;;;;;10.43;84.73;95526.97;29396;312;63009;-57
2021/04/29 01:22:37;;;;;;;0.55;0.55;;;;;;;10.42;85.06;95528.09;29396;209;63005;-63
2021/04/29 01:23:28;;;;;;;0.50;0.50;;;;;;;10.46;85.17;95526.34;29396;212;63009;-55
2021/04/29 01:24:25;;;;;;;0.50;0.50;;;;;;;10.47;85.28;95535.28;29418;289;63009;-64
2021/04/29 01:25:04;;;;;;;0.50;0.50;;;;;;;10.44;85.10;95536.72;29396;218;63004;-62
2021/04/29 01:25:37;;;;;;;0.50;0.50;;;;;;;10.42;84.93;95533.53;29396;218;63009;-62
2021/04/29 01:26:51;;;;;;;0.50;0.50;;;;;;;10.41;84.54;95531.94;29396;199;63004;-63
2021/04/29 01:27:24;;;;;;;0.50;0.50;;;;;;;10.44;84.83;95536.72;29395;304;64014;-62
2021/04/29 01:27:57;;;;;;;0.50;0.50;;;;;;;10.43;85.08;95535.13;29396;219;63005;-63
2021/04/29 01:28:30;;;;;;;0.50;0.50;;;;;;;10.44;84.79;95536.72;29396;206;63009;-63
2021/04/29 01:29:08;;;;;;;0.50;0.50;;;;;;;10.45;84.68;95532.88;29396;330;63005;-62
2021/04/29 01:29:42;;;;;;;0.50;0.50;;;;;;;10.45;84.91;95532.09;29396;215;63009;-64
2021/04/29 01:30:14;;;;;;;0.50;0.50;;;;;;;10.43;85.11;95524.28;29396;199;63005;-63
2021/04/29 01:30:46;;;;;;;0.50;0.50;;;;;;;10.42;85.02;95533.53;29396;259;63009;-62
2021/04/29 01:31:20;;;;;;;0.50;0.50;;;;;;;10.40;84.64;95531.12;29396;199;63004;-62
2021/04/29 01:31:53;;;;;;;0.50;0.50;;;;;;;10.41;84.76;95529.22;29396;288;63009;-63
2021/04/29 01:32:25;;;;;;;0.50;0.50;;;;;;;10.41;84.57;95531.94;29395;264;64009;-63
2021/04/29 01:32:56;;;;;;;0.50;0.50;;;;;;;10.41;84.61;95531.94;29396;361;63009;-61
2021/04/29 01:33:29;;;;;;;0.50;0.50;;;;;;;10.44;84.08;95531.28;29396;334;63004;-62
2021/04/29 01:34:04;;;;;;;0.50;0.50;;;;;;;10.46;84.33;95528.25;29396;302;63008;-63
2021/04/29 01:34:39;;;;;;;0.50;0.50;;;;;;;10.46;83.95;95534.47;29396;239;63005;-63
2021/04/29 01:35:12;;;;;;;0.50;0.50;;;;;;;10.47;84.10;95524.44;29396;205;63009;-62
2021/04/29 01:35:43;;;;;;;0.50;0.50;;;;;;;10.47;83.80;95525.22;29396;236;63005;-62
2021/04/29 01:36:15;;;;;;;0.50;0.50;;;;;;;10.48;83.63;95529.53;29396;199;63009;-62
2021/04/29 01:36:50;;;;;;;0.50;0.50;;;;;;;10.49;83.82;95533.81;29396;235;63005;-62
2021/04/29 01:37:21;;;;;;;0.50;0.50;;;;;;;10.48;84.29;95521.38;29396;199;63009;-55
2021/04/29 01:37:54;;;;;;;0.50;0.50;;;;;;;10.48;84.02;95526.81;29395;230;64017;-56
2021/04/29 01:38:25;;;;;;;0.50;0.50;;;;;;;10.51;83.74;95531.59;29396;203;63009;-62
2021/04/29 01:38:59;;;;;;;0.50;0.50;;;;;;;10.53;83.33;95529.34;29396;247;63004;-63
2021/04/29 01:39:30;;;;;;;0.50;0.50;;;;;;;10.54;83.46;95530.94;29396;270;63009;-64
2021/04/29 01:40:04;;;;;;;0.50;0.50;;;;;;;10.52;84.00;95524.25;29396;226;63004;-62
2021/04/29 01:40:36;;;;;;;0.50;0.50;;;;;;;10.48;84.31;95534.16;29396;201;63009;-63
2021/04/29 01:41:07;;;;;;;0.50;0.50;;;;;;;10.46;83.82;95529.06;29396;293;63004;-64
2021/04/29 01:41:41;;;;;;;0.50;0.50;;;;;;;10.46;83.71;95529.06;29396;344;63008;-62
2021/04/29 01:42:12;;;;;;;0.50;0.50;;;;;;;10.46;83.70;95529.06;29396;241;63005;-63
2021/04/29 01:42:44;;;;;;;0.50;0.50;;;;;;;10.46;83.34;95534.47;29395;237;64014;-64
2021/04/29 01:43:15;;;;;;;0.50;0.50;;;;;;;10.45;83.51;95538.31;29396;255;63005;-63
2021/04/29 01:43:47;;;;;;;0.50;0.50;;;;;;;10.47;83.97;95533.34;29396;206;63009;-62
2021/04/29 01:44:20;;;;;;;0.50;0.50;;;;;;;10.50;83.75;95534.63;29396;256;63005;-62
2021/04/29 01:44:52;;;;;;;0.50;0.50;;;;;;;10.50;83.74;95542.75;29396;198;63009;-63
2021/04/29 01:45:23;;;;;;;0.50;0.50;;;;;;;10.51;83.32;95533.50;29396;197;63005;-63
2021/04/29 01:45:55;;;;;;;0.50;0.50;;;;;;;10.51;83.03;95537.00;29396;233;63009;-64
2021/04/29 01:46:27;;;;;;;0.50;0.50;;;;;;;10.51;83.11;95537.00;29396;268;63004;-56
2021/04/29 01:47:00;;;;;;;0.50;0.50;;;;;;;10.52;82.94;95540.53;29396;302;63009;-63
2021/04/29 01:47:34;;;;;;;0.50;0.50;;;;;;;10.54;82.62;95539.06;29396;231;63004;-63
2021/04/29 01:48:06;;;;;;;0.50;0.50;;;;;;;10.56;82.39;95538.75;29395;225;64013;-63
2021/04/29 01:48:38;;;;;;;0.50;0.50;;;;;;;10.54;82.59;95536.38;29395;394;64009;-56
2021/04/29 01:49:11;;;;;;;0.50;0.50;;;;;;;10.54;82.61;95541.78;29396;289;63008;-62
2021/04/29 01:49:46;;;;;;;0.50;0.50;;;;;;;10.53;83.06;95540.19;29396;202;63005;-63
2021/04/29 01:50:18;;;;;;;0.50;0.50;;;;;;;10.52;82.76;95538.59;29396;242;63009;-63
2021/04/29 01:50:53;;;;;;;0.50;0.50;;;;;;;10.53;82.76;95545.62;29396;372;63001;-63
2021/04/29 01:51:24;;;;;;;0.50;0.50;;;;;;;10.66;82.20;95544.63;29396;202;63009;-64
2021/04/29 01:51:56;;;;;;;0.50;0.50;;;;;;;10.72;81.35;95543.31;29396;259;63005;-63
2021/04/29 01:52:28;;;;;;;0.55;0.55;;;;;;;10.71;81.45;95549.06;29396;216;63009;-63
2021/04/29 01:53:01;;;;;;;0.50;0.50;;;;;;;10.65;81.53;95548.47;29396;228;63005;-62
2021/04/29 01:53:33;;;;;;;0.50;0.50;;;;;;;10.63;81.24;95545.28;29395;293;64013;-63
2021/04/29 01:54:07;;;;;;;0.50;0.50;;;;;;;10.61;81.26;95547.50;29396;225;63004;-56
2021/04/29 01:54:41;;;;;;;0.50;0.50;;;;;;;10.56;82.30;95547.69;29396;243;63009;-63
2021/04/29 01:55:15;;;;;;;0.50;0.50;;;;;;;10.52;82.76;95549.44;29396;196;63004;-63
2021/04/29 01:55:48;;;;;;;0.50;0.50;;;;;;;10.50;82.85;95546.28;29396;218;63009;-56
2021/04/29 01:56:20;;;;;;;0.50;0.50;;;;;;;10.49;82.54;95544.69;29396;202;63004;-63
2021/04/29 01:56:52;;;;;;;0.50;0.50;;;;;;;10.52;82.26;95549.44;29396;260;63008;-66
2021/04/29 01:57:23;;;;;;;0.50;0.50;;;;;;;10.61;80.91;95550.22;29396;207;63005;-62
2021/04/29 01:57:54;;;;;;;0.50;0.50;;;;;;;10.68;80.91;95555.94;29396;222;63009;-63
2021/04/29 01:58:25;;;;;;;0.50;0.50;;;;;;;10.72;80.67;95543.31;29395;211;64009;-63
2021/04/29 01:58:58;;;;;;;0.50;0.50;;;;;;;10.72;80.44;95553.38;29396;231;63009;-63
2021/04/29 01:59:29;;;;;;;0.50;0.50;;;;;;;10.68;80.27;95549.72;29396;214;63005;-61
2021/04/29 02:00:04;;;;;;;0.50;0.50;;;;;;;10.65;80.91;95553.09;29396;220;63009;-62
2021/04/29 02:00:35;;;;;;;0.50;0.50;;;;;;;10.64;80.83;95554.22;29396;218;63004;-63
2021/04/29 02:01:06;;;;;;;0.50;0.50;;;;;;;10.69;80.69;95552.13;29396;208;63009;-63
2021/04/29 02:01:40;;;;;;;0.50;0.50;;;;;;;10.67;80.71;95546.22;29396;304;63004;-63
2021/04/29 02:02:11;;;;;;;0.50;0.50;;;;;;;10.64;80.85;95549.56;29396;197;63028;-62
2021/04/29 02:02:42;;;;;;;0.50;0.50;;;;;;;10.62;81.53;95553.72;29396;247;63004;-63
2021/04/29 02:03:14;;;;;;;0.50;0.50;;;;;;;10.59;81.14;95555.19;29396;207;63008;-63
2021/04/29 02:03:46;;;;;;;0.50;0.50;;;;;;;10.66;81.21;95549.25;29395;221;64008;-61
2021/04/29 02:04:17;;;;;;;0.50;0.50;;;;;;;10.65;80.87;95553.88;29396;211;63008;-63
2021/04/29 02:04:49;;;;;;;0.50;0.50;;;;;;;10.76;80.62;95559.72;29396;216;63005;-67
2021/04/29 02:05:21;;;;;;;0.50;0.50;;;;;;;10.84;79.90;95555.38;29396;250;63009;-64
2021/04/29 02:05:52;;;;;;;0.50;0.50;;;;;;;10.83;79.40;95559.22;29396;220;63005;-62
2021/04/29 02:06:24;;;;;;;0.50;0.50;;;;;;;10.78;79.55;95556.69;29395;232;64013;-63
2021/04/29 02:06:56;;;;;;;0.50;0.50;;;;;;;10.73;79.82;95561.19;29397;378;63005;-63
2021/04/29 02:07:27;;;;;;;0.50;0.50;;;;;;;10.68;79.94;95553.22;29397;216;63009;-63
2021/04/29 02:07:58;;;;;;;0.50;0.50;;;;;;;10.64;80.35;95562.34;29397;239;63004;-63
2021/04/29 02:08:29;;;;;;;0.50;0.50;;;;;;;10.60;80.84;95559.47;29397;212;63023;-64
2021/04/29 02:09:01;;;;;;;0.50;0.50;;;;;;;10.54;81.04;95558.06;29397;243;63004;-63
2021/04/29 02:09:32;;;;;;;0.50;0.50;;;;;;;10.51;81.32;95564.13;29397;225;63009;-64
2021/04/29 02:10:05;;;;;;;0.50;0.50;;;;;;;10.47;81.74;95563.19;29394;213;64009;-63
2021/04/29 02:10:38;;;;;;;0.50;0.50;;;;;;;10.46;81.48;95558.88;29395;214;63008;-63
2021/04/29 02:11:10;;;;;;;0.50;0.50;;;;;;;10.46;81.23;95567.00;29395;329;63004;-63
2021/04/29 02:11:52;;;;;;;0.50;0.50;;;;;;;10.49;81.42;95563.66;29395;337;63009;-58
2021/04/29 02:12:24;;;;;;;0.50;0.50;;;;;;;10.50;81.11;95562.53;29395;239;63005;-63
2021/04/29 02:12:56;;;;;;;0.50;0.50;;;;;;;10.54;81.17;95560.78;29395;256;63009;-63
2021/04/29 02:13:29;;;;;;;0.60;0.60;;;;;;;10.68;80.46;95563.28;29395;241;63005;-64
2021/04/29 02:14:05;;;;;;;0.50;0.50;;;;;;;10.73;80.37;95566.63;29395;200;63009;-65
2021/04/29 02:14:58;;;;;;;0.50;0.50;;;;;;;10.75;80.02;95572.50;29395;205;63005;-63
2021/04/29 02:15:32;;;;;;;0.50;0.50;;;;;;;10.72;79.78;95567.75;29393;278;64013;-63
2021/04/29 02:16:16;;;;;;;0.50;0.50;;;;;;;10.70;79.84;95569.97;29395;222;63004;-65
2021/04/29 02:16:49;;;;;;;0.50;0.50;;;;;;;10.68;80.33;95566.78;29395;218;63009;-64
2021/04/29 02:17:53;;;;;;;0.50;0.50;;;;;;;10.69;79.71;95570.31;29396;196;63004;-62
2021/04/29 02:18:25;;;;;;;0.50;0.50;;;;;;;10.64;80.24;95571.28;29395;389;63004;-63
2021/04/29 02:19:00;;;;;;;0.50;0.50;;;;;;;10.62;79.90;95570.81;29395;218;63005;-63
2021/04/29 02:19:32;;;;;;;0.50;0.50;;;;;;;10.62;80.28;95570.00;29395;229;63009;-62
2021/04/29 02:20:16;;;;;;;0.50;0.50;;;;;;;10.67;79.88;95570.63;29395;199;63005;-63
2021/04/29 02:20:50;;;;;;;0.50;0.50;;;;;;;10.67;79.81;95570.63;29393;216;64013;-64
2021/04/29 02:21:24;;;;;;;0.50;0.50;;;;;;;10.68;79.92;95568.72;29395;223;63005;-56
2021/04/29 02:21:57;;;;;;;0.50;0.50;;;;;;;10.64;80.46;95575.91;29395;245;63009;-63
2021/04/29 02:22:30;;;;;;;0.50;0.50;;;;;;;10.60;80.28;95573.03;29395;277;63005;-63
2021/04/29 02:23:08;;;;;;;0.50;0.50;;;;;;;10.57;80.39;95573.69;29395;342;63009;-63
2021/04/29 02:23:39;;;;;;;0.50;0.50;;;;;;;10.60;80.30;95572.25;29394;222;63004;-63
2021/04/29 02:24:11;;;;;;;0.50;0.50;;;;;;;10.63;80.44;95577.03;29395;354;63009;-63
2021/04/29 02:24:45;;;;;;;0.75;0.75;;;;;;;10.63;79.92;95583.25;29395;210;63004;-63
2021/04/29 02:25:23;;;;;;;0.50;0.50;;;;;;;10.74;79.21;95579.03;29395;342;63009;-63
2021/04/29 02:25:57;;;;;;;0.50;0.50;;;;;;;10.77;79.09;95571.38;29393;197;64008;-62
2021/04/29 02:26:29;;;;;;;0.50;0.50;;;;;;;10.81;79.66;95583.16;29395;202;63009;-63
2021/04/29 02:27:02;;;;;;;0.50;0.50;;;;;;;10.80;79.15;95576.16;29395;228;63005;-64
2021/04/29 02:27:35;;;;;;;0.50;0.50;;;;;;;10.78;79.67;95579.19;29395;203;63009;-63
2021/04/29 02:28:06;;;;;;;0.50;0.50;;;;;;;10.73;79.85;95588.31;29395;203;63005;-63
2021/04/29 02:28:38;;;;;;;0.50;0.50;;;;;;;10.68;79.77;95585.78;29395;265;63009;-63
2021/04/29 02:29:10;;;;;;;0.50;0.50;;;;;;;10.66;79.85;95588.03;29395;273;63005;-64
2021/04/29 02:29:44;;;;;;;0.50;0.50;;;;;;;10.73;79.35;95587.53;29395;219;63009;-63
2021/04/29 02:30:17;;;;;;;0.60;0.60;;;;;;;10.80;79.01;95584.28;29395;344;63005;-56
2021/04/29 02:30:50;;;;;;;0.60;0.60;;;;;;;10.82;78.95;95588.25;29393;270;64013;-64
2021/04/29 02:31:24;;;;;;;0.50;0.50;;;;;;;10.84;78.62;95579.81;29395;221;63004;-64
2021/04/29 02:31:55;;;;;;;0.50;0.50;;;;;;;10.80;78.69;95581.56;29395;223;63009;-62
2021/04/29 02:32:27;;;;;;;0.50;0.50;;;;;;;10.80;78.45;95581.56;29395;215;63004;-63
2021/04/29 02:32:59;;;;;;;0.50;0.50;;;;;;;10.78;78.42;95581.09;29395;212;63009;-63
2021/04/29 02:33:32;;;;;;;0.50;0.50;;;;;;;10.76;78.56;95586.84;29395;228;63004;-62
2021/04/29 02:34:05;;;;;;;0.50;0.50;;;;;;;10.76;79.13;95586.84;29395;219;63009;-62
2021/04/29 02:34:37;;;;;;;0.50;0.50;;;;;;;10.77;78.39;95583.00;29395;279;63005;-64
2021/04/29 02:35:11;;;;;;;0.50;0.50;;;;;;;10.73;78.49;95582.91;29395;197;63009;-63
2021/04/29 02:35:44;;;;;;;0.50;0.50;;;;;;;10.70;79.03;95580.84;29395;228;63005;-63
2021/04/29 02:36:16;;;;;;;0.50;0.50;;;;;;;10.69;78.75;95584.66;29393;223;64013;-61
2021/04/29 02:36:47;;;;;;;0.50;0.50;;;;;;;10.69;78.67;95584.66;29395;204;63005;-54
2021/04/29 02:37:19;;;;;;;0.50;0.50;;;;;;;10.68;78.98;95580.34;29395;234;63009;-62
2021/04/29 02:37:53;;;;;;;0.50;0.50;;;;;;;10.67;79.23;95578.78;29393;208;64009;-62
2021/04/29 02:38:28;;;;;;;0.50;0.50;;;;;;;10.67;78.95;95583.41;29395;336;63009;-62
2021/04/29 02:39:00;;;;;;;0.50;0.50;;;;;;;10.64;78.99;95579.41;29395;241;63004;-55
2021/04/29 02:39:35;;;;;;;0.50;0.50;;;;;;;10.62;79.16;95581.66;29394;239;63009;-63
2021/04/29 02:40:08;;;;;;;0.50;0.50;;;;;;;10.65;79.28;95591.84;29395;237;63004;-61
2021/04/29 02:40:40;;;;;;;0.50;0.50;;;;;;;10.78;78.84;95579.19;29395;225;63008;-63